Flight Track Log - Related Links

Times and Time Zones

All times are in EDT time to prevent confusion due to time zone crossing. See the N555CP flight status page for this flight to view local times or setup timezone preferences in your user account.

Time Position Orientation Groundspeed Altitude Reporting Facility
EDT Latitude Longitude Course Direction KTS MPH feet Rate Location/Type
Thu 10:19:24 AM 33.4667 -111.7167 90° East 110 127 1,600  Level Phoenix TRACON
Thu 10:19:48 AM 33.4667 -111.7000 90° East 109 125 2,300 1,286 Climbing Phoenix TRACON
Thu 10:20:48 AM 33.4333 -111.7167 203° Southwest 138 159 3,400 1,050 Climbing Phoenix TRACON
Thu 10:21:48 AM 33.4000 -111.7333 203° Southwest 125 144 4,400 952 Climbing Phoenix TRACON
Thu 10:22:54 AM 33.3833 -111.7000 121° Southeast 109 125 5,400 902 Climbing Phoenix TRACON
Thu 10:24:01 AM 33.3622 -111.6658 126° Southeast 117 135 6,400 844 Climbing Albuquerque Center
Thu 10:25:02 AM 33.3425 -111.6294 123° Southeast 126 145 7,200 878 Climbing Albuquerque Center
Thu 10:26:04 AM 33.3208 -111.5928 125° Southeast 131 151 8,200 823 Climbing Albuquerque Center
Thu 10:27:06 AM 33.3014 -111.5522 120° Southeast 137 158 8,900 677 Climbing Albuquerque Center
Thu 10:28:08 AM 33.2811 -111.5089 119° Southeast 145 167 9,600 683 Climbing Albuquerque Center
Thu 10:29:09 AM 33.2611 -111.4647 118° Southeast 148 170 10,300 829 Climbing Albuquerque Center
Thu 10:30:11 AM 33.2356 -111.4106 119° Southeast 153 176 11,300 823 Climbing Albuquerque Center
Thu 10:31:13 AM 33.2144 -111.3628 118° Southeast 158 182 12,000 726 Climbing Albuquerque Center
Thu 10:32:15 AM 33.1950 -111.3147 116° Southeast 159 183 12,800 732 Climbing Albuquerque Center
Thu 10:33:16 AM 33.1733 -111.2667 118° Southeast 161 185 13,500 634 Climbing Albuquerque Center
Thu 10:34:18 AM 33.1564 -111.2147 111° Southeast 165 190 14,100 581 Climbing Albuquerque Center
Thu 10:35:20 AM 33.1444 -111.1611 105° East 166 191 14,700 726 Climbing Albuquerque Center
Thu 10:36:22 AM 33.1278 -111.0950 107° East 170 196 15,600 726 Climbing Albuquerque Center
Thu 10:37:24 AM 33.1122 -111.0406 109° East 172 198 16,200 629 Climbing Albuquerque Center
Thu 10:38:26 AM 33.1011 -110.9822 103° East 175 201 16,900 581 Climbing Albuquerque Center
Thu 10:39:28 AM 33.0867 -110.9256 107° East 177 204 17,400 532 Climbing Albuquerque Center
Thu 10:40:30 AM 33.0728 -110.8669 106° East 178 205 18,000 585 Climbing Albuquerque Center
Thu 10:41:31 AM 33.0569 -110.8075 108° East 185 213 18,600 488 Climbing Albuquerque Center
Thu 10:42:33 AM 33.0383 -110.7358 107° East 188 216 19,000 194 Climbing Albuquerque Center
Thu 10:43:35 AM 33.0203 -110.6664 107° East 209 241 19,000  Level Albuquerque Center
Thu 10:44:37 AM 33.0028 -110.5967 107° East 215 247 19,000  Level Albuquerque Center
Thu 10:45:39 AM 32.9853 -110.5289 107° East 217 250 19,000  Level Albuquerque Center
Thu 10:46:41 AM 32.9681 -110.4603 107° East 217 250 19,000  Level Albuquerque Center
Thu 10:47:43 AM 32.9519 -110.3942 106° East 215 247 19,000  Level Albuquerque Center
Thu 10:48:45 AM 32.9350 -110.3264 107° East 214 246 19,000  Level Albuquerque Center
Thu 10:49:47 AM 32.9142 -110.2433 107° East 215 247 19,000  Level Albuquerque Center
Thu 10:50:49 AM 32.8956 -110.1728 107° East 219 252 19,000  Level Albuquerque Center
Thu 10:51:51 AM 32.8775 -110.1031 107° East 220 253 19,000  Level Albuquerque Center
Thu 10:52:53 AM 32.8600 -110.0347 107° East 220 253 19,000  Level Albuquerque Center
Thu 10:53:55 AM 32.8408 -109.9656 108° East 220 253 19,000  Level Albuquerque Center
Thu 10:54:57 AM 32.8244 -109.8969 108° East 220 253 19,000  Level Albuquerque Center
Thu 10:55:00 AM 32.8212 -109.8928 108° East  Level FlightAware Approximate
Thu 10:55:59 AM 32.8028 -109.8147 107° East 219 252 19,000  Level Albuquerque Center
Thu 10:57:01 AM 32.7833 -109.7464 109° East 219 252 19,000  Level Albuquerque Center
Thu 10:58:03 AM 32.7653 -109.6781 107° East 219 252 19,000  Level Albuquerque Center
Thu 10:59:05 AM 32.7458 -109.6086 108° East 219 252 19,000  Level Albuquerque Center
Thu 11:00:07 AM 32.7286 -109.5400 107° East 219 252 19,000  Level Albuquerque Center
Thu 11:01:09 AM 32.7061 -109.4575 108° East 219 252 19,000  Level Albuquerque Center
Thu 11:02:11 AM 32.6869 -109.3867 108° East 220 253 19,000  Level Albuquerque Center
Thu 11:03:13 AM 32.6678 -109.3172 108° East 221 254 19,000  Level Albuquerque Center
Thu 11:04:16 AM 32.6494 -109.2494 108° East 220 253 19,000  Level Albuquerque Center
Thu 11:05:18 AM 32.6311 -109.1803 107° East 220 253 19,000  Level Albuquerque Center
Thu 11:06:20 AM 32.6092 -109.0972 107° East 221 254 19,000  Level Albuquerque Center
Thu 11:08:24 AM 32.5711 -108.9583 108° East 221 254 19,000  Level Albuquerque Center
Thu 11:09:26 AM 32.5525 -108.8897 108° East 221 254 19,000  Level Albuquerque Center
Thu 11:10:28 AM 32.5339 -108.8194 107° East 221 254 19,000  Level Albuquerque Center
Thu 11:11:30 AM 32.5111 -108.7353 108° East 222 255 19,000  Level Albuquerque Center
Thu 11:12:32 AM 32.4917 -108.6650 108° East 222 255 19,000  Level Albuquerque Center
Thu 11:13:34 AM 32.4728 -108.5953 108° East 222 255 19,000  Level Albuquerque Center
Thu 11:14:37 AM 32.4542 -108.5239 107° East 224 258 19,000  Level Albuquerque Center
Thu 11:15:39 AM 32.4353 -108.4536 108° East 224 258 19,000  Level Albuquerque Center
Thu 11:16:41 AM 32.4136 -108.3786 109° East 224 258 19,000  Level Albuquerque Center
Thu 11:17:43 AM 32.3964 -108.3078 106° East 224 258 19,000  Level Albuquerque Center
Thu 11:18:45 AM 32.3761 -108.2383 109° East 224 258 19,000  Level Albuquerque Center
Thu 11:19:47 AM 32.3528 -108.1544 108° East 224 258 19,000  Level Albuquerque Center
Thu 11:20:49 AM 32.3333 -108.0842 108° East 224 258 19,000  Level Albuquerque Center
Thu 11:21:51 AM 32.3133 -108.0131 108° East 226 260 19,000  Level Albuquerque Center
Thu 11:22:53 AM 32.2928 -107.9417 109° East 227 261 19,000  Level Albuquerque Center
Thu 11:23:55 AM 32.2719 -107.8700 109° East 229 264 19,000  Level Albuquerque Center
Thu 11:24:58 AM 32.2519 -107.7983 108° East 229 264 19,000  Level Albuquerque Center
Thu 11:26:00 AM 32.2286 -107.7131 108° East 229 264 19,000  Level Albuquerque Center
Thu 11:27:02 AM 32.2089 -107.6422 108° East 229 264 19,000  Level Albuquerque Center
Thu 11:28:04 AM 32.1897 -107.5717 108° East 229 264 19,000  Level Albuquerque Center
Thu 11:29:06 AM 32.1692 -107.5025 109° East 228 262 19,000  Level Albuquerque Center
Thu 11:30:08 AM 32.1492 -107.4319 108° East 228 262 19,000  Level Albuquerque Center
Thu 11:31:10 AM 32.1261 -107.3478 108° East 228 262 19,000  Level Albuquerque Center
Thu 11:32:12 AM 32.1067 -107.2781 108° East 227 261 19,000  Level Albuquerque Center
Thu 11:33:14 AM 32.0864 -107.2089 109° East 227 261 19,000  Level Albuquerque Center
Thu 11:34:16 AM 32.0658 -107.1381 109° East 227 261 19,000  Level Albuquerque Center
Thu 11:35:18 AM 32.0461 -107.0667 108° East 227 261 19,000  Level Albuquerque Center
Thu 11:36:20 AM 32.0222 -106.9811 108° East 228 262 19,000  Level Albuquerque Center
Thu 11:37:23 AM 32.0006 -106.9089 109° East 230 265 19,000  Level Albuquerque Center
Thu 11:38:25 AM 31.9803 -106.8372 108° East 231 266 19,000  Level Albuquerque Center
Thu 11:39:27 AM 31.9589 -106.7647 109° East 231 266 19,000  Level Albuquerque Center
Thu 11:40:29 AM 31.9342 -106.6814 109° East 232 267 19,000  Level Albuquerque Center
Thu 11:41:31 AM 31.9131 -106.6075 109° East 232 267 19,000  Level Albuquerque Center
Thu 11:42:33 AM 31.8917 -106.5347 109° East 232 267 19,000  Level Albuquerque Center
Thu 11:43:35 AM 31.8725 -106.4628 107° East 233 268 19,000  Level Albuquerque Center
Thu 11:44:37 AM 31.8511 -106.3908 109° East 233 268 19,000  Level Albuquerque Center
Thu 11:45:39 AM 31.8297 -106.3208 110° East 232 267 19,000  Level Albuquerque Center
Thu 11:46:41 AM 31.8189 -106.2400 99° East 218 251 19,000  Level Albuquerque Center
Thu 11:47:44 AM 31.8219 -106.1644 87° East 216 249 19,000  Level Albuquerque Center
Thu 11:48:46 AM 31.8253 -106.0922 87° East 217 250 19,000  Level Albuquerque Center
Thu 11:49:48 AM 31.8286 -106.0150 87° East 218 251 19,000  Level Albuquerque Center
Thu 11:50:50 AM 31.8308 -105.9428 88° East 219 252 19,000  Level Albuquerque Center
Thu 11:51:52 AM 31.8339 -105.8661 87° East 219 252 19,000  Level Albuquerque Center
Thu 11:52:54 AM 31.8375 -105.7953 87° East 219 252 19,000  Level Albuquerque Center
Thu 11:53:56 AM 31.8397 -105.7244 88° East 218 251 19,000  Level Albuquerque Center
Thu 11:54:58 AM 31.8436 -105.6475 87° East 219 252 19,000  Level Albuquerque Center
Thu 11:56:00 AM 31.8458 -105.5764 88° East 219 252 19,000  Level Albuquerque Center
Thu 11:57:02 AM 31.8494 -105.4983 87° East 220 253 19,000  Level Albuquerque Center
Thu 11:58:05 AM 31.8506 -105.4258 89° East 220 253 19,000  Level Albuquerque Center
Thu 11:59:07 AM 31.8556 -105.3481 86° East 221 254 19,000  Level Albuquerque Center
Thu 12:00:09 PM 31.8594 -105.2856 86° East 221 254 19,000  Level Albuquerque Center
Thu 12:01:11 PM 31.8603 -105.1997 89° East 221 254 19,000  Level Albuquerque Center
Thu 12:02:13 PM 31.8631 -105.1269 87° East 221 254 19,000  Level Albuquerque Center
Thu 12:03:15 PM 31.8664 -105.0531 87° East 222 255 19,000  Level Albuquerque Center
Thu 12:04:17 PM 31.8708 -104.9797 86° East 223 257 19,000  Level Albuquerque Center
Thu 12:05:19 PM 31.8708 -104.9078 90° East 223 257 19,000  Level Albuquerque Center
Thu 12:06:21 PM 31.8728 -104.8350 88° East 223 257 19,000  Level Albuquerque Center
Thu 12:07:24 PM 31.8808 -104.7439 84° East 225 259 19,000  Level Albuquerque Center
Thu 12:08:26 PM 31.8850 -104.6717 86° East 231 266 19,000  Level Albuquerque Center
Thu 12:09:28 PM 31.8858 -104.5967 89° East 231 266 19,000  Level Albuquerque Center
Thu 12:10:30 PM 31.8889 -104.5214 87° East 231 266 19,000  Level Albuquerque Center
Thu 12:11:32 PM 31.8911 -104.4469 88° East 231 266 19,000  Level Albuquerque Center
Thu 12:12:34 PM 31.8933 -104.3575 88° East 230 265 19,000  Level Albuquerque Center
Thu 12:13:36 PM 31.8967 -104.2836 87° East 230 265 19,000  Level Albuquerque Center
Thu 12:14:38 PM 31.8992 -104.2103 88° East 229 264 19,000  Level Albuquerque Center
Thu 12:15:40 PM 31.9000 -104.1372 89° East 228 262 19,000  Level Albuquerque Center
Thu 12:16:43 PM 31.9025 -104.0628 88° East 228 262 19,000  Level Albuquerque Center
Thu 12:17:45 PM 31.9056 -103.9892 87° East 228 262 19,000  Level Albuquerque Center
Thu 12:18:47 PM 31.9075 -103.9011 88° East 228 262 19,000  Level Albuquerque Center
Thu 12:19:49 PM 31.9125 -103.8356 85° East 210 242 19,000  Level Albuquerque Center
Thu 12:20:51 PM 31.9142 -103.7697 88° East 204 235 19,000  Level Albuquerque Center
Thu 12:21:53 PM 31.9183 -103.7078 85° East 198 228 19,000  Level Albuquerque Center
Thu 12:22:55 PM 31.9208 -103.6464 87° East 192 221 19,000 -578 Level Albuquerque Center
Thu 12:24:08 PM 31.9208 -103.5533 90° East 229 264 17,700 -800 Descending Fort Worth Center
Thu 12:25:10 PM 31.9214 -103.4747 90° East 242 278 17,200 -823 Descending Fort Worth Center
Thu 12:26:12 PM 31.9242 -103.3867 88° East 230 265 16,000 -1,008 Descending Fort Worth Center
Thu 12:27:15 PM 31.9267 -103.3139 88° East 227 261 15,100 -864 Descending Fort Worth Center
Thu 12:28:17 PM 31.9258 -103.2350 91° East 234 269 14,200 -581 Descending Fort Worth Center
Thu 12:29:19 PM 31.9258 -103.1619 90° East 230 265 13,900 -145 Descending Fort Worth Center
Thu 12:30:21 PM 31.9289 -103.0978 87° East 206 237 13,900 -242 Level Fort Worth Center
Thu 12:31:23 PM 31.9308 -103.0225 88° East 195 224 13,400 -871 Descending Fort Worth Center
Thu 12:32:25 PM 31.9278 -102.9492 93° East 217 250 12,100 -1,065 Descending Fort Worth Center
Thu 12:33:27 PM 31.9064 -102.8794 110° East 225 259 11,200 -919 Descending Fort Worth Center
Thu 12:34:29 PM 31.8869 -102.8103 108° East 225 259 10,200 -1,104 Descending Fort Worth Center
Thu 12:35:32 PM 31.8672 -102.7414 109° East 225 259 8,900 -1,104 Descending Fort Worth Center
Thu 12:36:34 PM 31.8478 -102.6742 109° East 223 257 7,900 -871 Descending Fort Worth Center
Thu 12:37:36 PM 31.8264 -102.5942 107° East 218 251 7,100 -435 Descending Fort Worth Center
Thu 12:38:38 PM 31.8136 -102.5333 104° East 201 231 7,000 -48 Descending Fort Worth Center
Thu 12:39:40 PM 31.8003 -102.4767 105° East 187 215 7,000 48 Level Fort Worth Center
Thu 12:40:42 PM 31.7875 -102.4189 105° East 186 214 7,100  Climbing Fort Worth Center
Thu 12:41:44 PM 31.7731 -102.3639 107° East 182 209 7,000 -97 Descending Fort Worth Center
Thu 12:42:46 PM 31.7628 -102.3072 102° East 179 206 6,900 -387 Descending Fort Worth Center
Thu 12:43:48 PM 31.7572 -102.2406 96° East 196 226 6,200 -336 Descending Fort Worth Center
Thu 12:44:51 PM 31.7522 -102.1658 94° East 195 224 6,200  Level Fort Worth Center
Thu 12:45:53 PM 31.7539 -102.1069 88° East 193 222 6,200 -145 Level Fort Worth Center
Thu 12:46:55 PM 31.8031 -102.0914 15° North 188 216 5,900 -145 Descending Fort Worth Center
Thu 12:47:57 PM 31.8464 -102.0717 21° North 174 200 5,900 -97 Level Fort Worth Center
Thu 12:48:59 PM 31.8883 -102.0678 North 178 205 5,700 -532 Descending Fort Worth Center
Thu 12:50:01 PM 31.9128 -102.1122 303° West 144 166 4,800 -871 Descending Fort Worth Center
Thu 12:51:03 PM 31.9261 -102.1542 291° West 140 161 3,900 -677 Descending Fort Worth Center
Thu 12:52:05 PM 31.9375 -102.1892 291° West 139 160 3,400 -484 Descending Fort Worth Center

Login

Don't have an account? Register now (free) for customized features, flight alerts, and more!